Time;durP1;ratioP1;P1;durP2;ratioP2;P2;SDS_P1;SDS_P2;PMS_P1;PMS_P2;Temp;Humidity;BMP_temperature;BMP_pressure;BME280_temperature;BME280_humidity;BME280_pressure;Samples;Min_cycle;Max_cycle;Signal;HPM_P1;HPM_P2
2023/04/04 00:00:32;;;;;;;4.93;1.00;;;1.70;99.90;;;;;;4989325;28;20042;-73
2023/04/04 00:02:57;;;;;;;5.63;1.27;;;1.60;99.90;;;;;;4990592;28;20399;-73
2023/04/04 00:05:23;;;;;;;3.67;1.15;;;1.70;99.90;;;;;;4990183;28;20030;-73
2023/04/04 00:07:48;;;;;;;5.05;1.20;;;1.60;99.90;;;;;;4991272;28;20065;-73
2023/04/04 00:10:14;;;;;;;6.20;1.08;;;1.60;99.90;;;;;;4990601;28;20109;-73
2023/04/04 00:12:41;;;;;;;5.07;1.17;;;1.50;99.90;;;;;;4989780;28;20031;-73
2023/04/04 00:15:07;;;;;;;6.55;1.35;;;1.50;99.90;;;;;;4988638;28;20026;-73
2023/04/04 00:17:32;;;;;;;5.82;1.55;;;1.50;99.90;;;;;;4990275;28;20030;-73
2023/04/04 00:19:58;;;;;;;5.97;1.23;;;1.50;99.90;;;;;;4988557;28;20060;-73
2023/04/04 00:22:24;;;;;;;4.43;1.67;;;1.40;99.90;;;;;;4988761;28;20026;-73
2023/04/04 00:24:50;;;;;;;5.15;0.88;;;1.40;99.90;;;;;;4988306;28;20022;-73
2023/04/04 00:27:15;;;;;;;4.78;1.30;;;1.40;99.90;;;;;;4990415;28;20084;-73
2023/04/04 00:29:41;;;;;;;2.95;1.25;;;1.40;99.90;;;;;;4990375;28;20058;-73
2023/04/04 00:32:06;;;;;;;3.80;0.88;;;1.40;99.90;;;;;;4988111;28;20034;-73
2023/04/04 00:34:35;;;;;;;3.15;0.98;;;1.40;99.90;;;;;;4990149;28;20038;-73
2023/04/04 00:37:00;;;;;;;6.05;1.88;;;1.40;99.90;;;;;;4990566;28;20037;-74
2023/04/04 00:39:26;;;;;;;7.88;1.13;;;1.40;99.90;;;;;;4989429;28;20031;-73
2023/04/04 00:41:52;;;;;;;7.75;1.60;;;1.40;99.90;;;;;;4990246;28;20518;-73
2023/04/04 00:44:17;;;;;;;3.50;1.15;;;1.40;99.90;;;;;;4989740;28;20026;-73
2023/04/04 00:46:43;;;;;;;6.70;1.05;;;1.50;99.90;;;;;;4988659;28;20026;-73
2023/04/04 00:49:09;;;;;;;6.35;1.20;;;1.50;99.90;;;;;;4988950;28;20042;-73
2023/04/04 00:51:34;;;;;;;9.90;1.58;;;1.40;99.90;;;;;;4987974;28;20038;-73
2023/04/04 00:54:00;;;;;;;2.65;1.20;;;1.40;99.90;;;;;;4988809;28;20581;-73
2023/04/04 00:56:27;;;;;;;7.03;0.95;;;1.40;99.90;;;;;;4990223;28;20479;-73
2023/04/04 00:58:55;;;;;;;4.20;1.08;;;1.40;99.90;;;;;;4989609;28;20041;-73
2023/04/04 01:01:20;;;;;;;6.93;1.27;;;1.40;99.90;;;;;;4987897;28;20038;-73
2023/04/04 01:03:46;;;;;;;7.90;1.08;;;1.30;99.90;;;;;;4989901;28;20387;-73
2023/04/04 01:06:13;;;;;;;5.53;1.08;;;1.30;99.90;;;;;;4989614;28;20502;-73
2023/04/04 01:08:38;;;;;;;6.93;1.48;;;1.30;99.90;;;;;;4990132;28;20019;-73
2023/04/04 01:11:05;;;;;;;7.70;1.75;;;1.20;99.90;;;;;;4990135;28;20038;-73
2023/04/04 01:13:31;;;;;;;3.97;1.50;;;1.20;99.90;;;;;;4990393;28;20031;-73
2023/04/04 01:15:57;;;;;;;4.32;1.05;;;1.30;99.90;;;;;;4990072;28;20033;-73
2023/04/04 01:18:24;;;;;;;6.45;1.20;;;1.30;99.90;;;;;;4990553;28;20030;-73
2023/04/04 01:21:03;;;;;;;6.57;1.40;;;1.20;99.90;;;;;;4990556;28;20034;-73
2023/04/04 01:23:48;;;;;;;3.60;1.08;;;1.30;99.90;;;;;;4990344;28;20560;-73
2023/04/04 01:26:14;;;;;;;4.88;1.58;;;1.30;99.90;;;;;;4989201;28;20508;-73
2023/04/04 01:28:39;;;;;;;3.58;1.23;;;1.20;99.90;;;;;;4989997;28;20026;-73
2023/04/04 01:31:09;;;;;;;3.40;1.20;;;1.20;99.90;;;;;;4991291;28;20360;-73
2023/04/04 01:33:50;;;;;;;5.95;1.40;;;1.20;99.90;;;;;;4991131;28;20046;-73
2023/04/04 01:36:24;;;;;;;4.18;1.13;;;1.10;99.90;;;;;;4990152;28;20058;-73
2023/04/04 01:39:26;;;;;;;7.72;1.60;;;1.10;99.90;;;;;;4984501;28;20060;-73
2023/04/04 01:41:55;;;;;;;8.48;1.20;;;1.10;99.90;;;;;;4980090;28;20050;-73
2023/04/04 01:44:21;;;;;;;3.65;1.35;;;1.00;99.90;;;;;;4988987;28;20031;-73
2023/04/04 01:46:54;;;;;;;3.10;1.02;;;0.90;99.90;;;;;;4992173;28;20041;-73
2023/04/04 01:49:21;;;;;;;5.72;1.25;;;0.90;99.90;;;;;;4992381;28;20057;-73
2023/04/04 01:51:48;;;;;;;3.75;1.20;;;0.80;99.90;;;;;;4993698;28;20076;-73
2023/04/04 01:54:14;;;;;;;5.45;1.77;;;0.80;99.90;;;;;;4992142;28;20026;-73
2023/04/04 01:56:39;;;;;;;4.75;1.48;;;0.70;99.90;;;;;;4992876;28;20026;-73
2023/04/04 01:59:06;;;;;;;7.05;1.48;;;0.70;99.90;;;;;;4993033;28;20054;-73
2023/04/04 02:01:32;;;;;;;4.50;1.02;;;0.70;99.90;;;;;;4991027;28;20050;-73
2023/04/04 02:03:57;;;;;;;6.38;1.08;;;0.70;99.90;;;;;;4993713;28;20394;-73
2023/04/04 02:06:23;;;;;;;4.03;0.98;;;0.70;99.90;;;;;;4991507;28;20077;-73
2023/04/04 02:08:48;;;;;;;6.63;1.45;;;0.60;99.90;;;;;;4993247;28;20050;-73
2023/04/04 02:11:14;;;;;;;7.60;1.33;;;0.60;99.90;;;;;;4991146;28;20030;-73
2023/04/04 02:13:43;;;;;;;6.88;1.55;;;0.60;99.90;;;;;;4992304;28;20058;-73
2023/04/04 02:16:09;;;;;;;4.40;1.48;;;0.50;99.90;;;;;;4990678;28;20023;-73
2023/04/04 02:18:35;;;;;;;4.03;1.52;;;0.40;99.90;;;;;;4991740;28;20085;-73
2023/04/04 02:21:00;;;;;;;3.80;1.02;;;0.40;99.90;;;;;;4992415;28;20442;-73
2023/04/04 02:23:26;;;;;;;4.18;1.23;;;0.40;99.90;;;;;;4991451;28;20058;-73
2023/04/04 02:25:52;;;;;;;3.35;1.30;;;0.50;99.90;;;;;;4991512;28;20057;-73
2023/04/04 02:28:17;;;;;;;4.57;1.50;;;0.40;99.90;;;;;;4989530;28;20047;-73
2023/04/04 02:30:43;;;;;;;3.10;1.17;;;0.40;99.90;;;;;;4993481;28;20037;-73
2023/04/04 02:33:08;;;;;;;3.47;1.77;;;0.40;99.90;;;;;;4991812;28;20030;-73
2023/04/04 02:35:34;;;;;;;7.05;1.88;;;0.30;99.90;;;;;;4990176;28;20037;-73
2023/04/04 02:38:00;;;;;;;5.68;1.50;;;0.30;99.90;;;;;;4990781;28;20481;-73
2023/04/04 02:40:26;;;;;;;8.90;1.90;;;0.30;99.90;;;;;;4986631;28;20088;-73
2023/04/04 02:42:51;;;;;;;5.93;1.30;;;0.20;99.90;;;;;;4992122;28;20157;-73
2023/04/04 02:45:17;;;;;;;4.57;1.27;;;0.20;99.90;;;;;;4991420;28;20152;-72
2023/04/04 02:47:49;;;;;;;5.65;2.38;;;0.20;99.90;;;;;;4991216;28;20027;-73
2023/04/04 02:50:15;;;;;;;5.88;1.50;;;0.10;99.90;;;;;;4989626;28;20054;-73
2023/04/04 02:52:40;;;;;;;4.80;1.17;;;0.10;99.90;;;;;;4990944;28;20054;-73
2023/04/04 02:55:07;;;;;;;8.60;2.70;;;0.10;99.90;;;;;;4992123;28;20030;-73
2023/04/04 02:57:33;;;;;;;7.18;1.63;;;0.10;99.90;;;;;;4989971;28;20034;-73
2023/04/04 02:59:58;;;;;;;5.68;1.40;;;0.10;99.90;;;;;;4990813;28;20173;-73
2023/04/04 03:02:24;;;;;;;6.45;1.73;;;0.10;99.90;;;;;;4990978;28;20065;-73
2023/04/04 03:04:50;;;;;;;5.35;1.73;;;0.10;99.90;;;;;;4990740;28;20026;-73
2023/04/04 03:07:16;;;;;;;4.95;1.20;;;0.20;99.90;;;;;;4990291;28;20019;-73
2023/04/04 03:09:44;;;;;;;7.20;1.58;;;0.20;99.90;;;;;;4991235;28;20022;-73
2023/04/04 03:12:10;;;;;;;6.22;1.60;;;0.10;99.90;;;;;;4992101;28;20491;-73
2023/04/04 03:14:35;;;;;;;4.60;1.60;;;0.10;99.90;;;;;;4992196;28;20030;-73
2023/04/04 03:17:02;;;;;;;3.15;1.42;;;0.10;99.90;;;;;;4990542;28;20032;-73
2023/04/04 03:19:27;;;;;;;7.22;1.90;;;0.10;99.90;;;;;;4990340;28;20026;-73
2023/04/04 03:21:53;;;;;;;5.07;1.70;;;0.10;99.90;;;;;;4997716;28;20029;-73
2023/04/04 03:24:18;;;;;;;5.43;1.98;;;0.10;99.90;;;;;;4988124;28;20418;-73
2023/04/04 03:26:44;;;;;;;5.45;1.77;;;0.10;99.90;;;;;;4991490;28;20053;-73
2023/04/04 03:29:09;;;;;;;6.85;2.10;;;0.00;99.90;;;;;;4991106;28;20027;-73
2023/04/04 03:31:35;;;;;;;7.55;1.70;;;0.00;99.90;;;;;;4989513;28;20029;-73
2023/04/04 03:34:01;;;;;;;7.95;2.10;;;-0.10;99.90;;;;;;4991305;28;20471;-73
2023/04/04 03:36:26;;;;;;;6.47;1.98;;;-0.20;99.90;;;;;;4989137;28;20034;-73
2023/04/04 03:38:52;;;;;;;5.90;1.90;;;-0.30;99.90;;;;;;4991941;28;20372;-73
2023/04/04 03:41:17;;;;;;;6.10;1.70;;;-0.40;99.90;;;;;;4991086;28;20121;-73
2023/04/04 03:43:44;;;;;;;7.55;1.60;;;-0.40;99.90;;;;;;4990616;28;20077;-73
2023/04/04 03:46:09;;;;;;;5.82;2.47;;;-0.40;99.90;;;;;;4990994;28;20030;-74
2023/04/04 03:48:36;;;;;;;5.55;2.35;;;-0.40;99.90;;;;;;4990807;28;20475;-73
2023/04/04 03:51:03;;;;;;;5.35;1.60;;;-0.40;99.90;;;;;;4988414;28;20030;-73
2023/04/04 03:53:28;;;;;;;6.18;1.58;;;-0.40;99.90;;;;;;4986731;28;20030;-73
2023/04/04 03:55:55;;;;;;;6.22;1.83;;;-0.40;99.90;;;;;;4989000;28;20034;-73
2023/04/04 03:58:21;;;;;;;5.80;1.88;;;-0.40;99.90;;;;;;4989016;28;20583;-73
2023/04/04 04:00:47;;;;;;;9.30;2.05;;;-0.40;99.90;;;;;;4990558;28;20092;-73
2023/04/04 04:03:13;;;;;;;6.43;2.40;;;-0.30;99.90;;;;;;4990045;28;20105;-73
2023/04/04 04:05:38;;;;;;;6.15;1.77;;;-0.40;99.90;;;;;;4991284;28;20030;-73
2023/04/04 04:08:04;;;;;;;5.82;2.28;;;-0.40;99.90;;;;;;4989950;28;20598;-73
2023/04/04 04:10:30;;;;;;;5.13;2.10;;;-0.40;99.90;;;;;;4990180;28;20386;-73
2023/04/04 04:12:56;;;;;;;6.40;1.65;;;-0.40;99.90;;;;;;4992091;28;20032;-73
2023/04/04 04:15:22;;;;;;;6.95;1.92;;;-0.50;99.90;;;;;;4989864;28;20620;-73
2023/04/04 04:17:47;;;;;;;8.52;1.90;;;-0.50;99.90;;;;;;4991872;28;20030;-73
2023/04/04 04:20:13;;;;;;;5.70;1.88;;;-0.60;99.90;;;;;;4984087;28;20037;-73
2023/04/04 04:22:47;;;;;;;8.35;1.75;;;-0.60;99.90;;;;;;4986588;28;20594;-73
2023/04/04 04:25:14;;;;;;;6.10;1.90;;;-0.60;99.90;;;;;;4992012;28;20033;-73
2023/04/04 04:27:40;;;;;;;5.03;1.67;;;-0.70;99.90;;;;;;4991062;28;20038;-73
2023/04/04 04:30:06;;;;;;;7.35;2.17;;;-0.60;99.90;;;;;;4989483;28;20117;-73
2023/04/04 04:32:32;;;;;;;5.72;2.05;;;-0.70;99.90;;;;;;4991850;28;20482;-73
2023/04/04 04:34:57;;;;;;;6.80;2.08;;;-0.70;99.90;;;;;;4991376;28;20034;-73
2023/04/04 04:37:24;;;;;;;7.15;1.92;;;-0.70;99.90;;;;;;4987768;28;20042;-73
2023/04/04 04:39:51;;;;;;;6.10;2.38;;;-0.70;99.90;;;;;;4991487;28;20124;-73
2023/04/04 04:42:16;;;;;;;9.35;2.50;;;-0.70;99.90;;;;;;4988478;28;20037;-73
2023/04/04 04:44:42;;;;;;;6.95;2.10;;;-0.70;99.90;;;;;;4989083;28;20034;-73
2023/04/04 04:47:07;;;;;;;7.78;2.30;;;-0.70;99.90;;;;;;4990288;28;20031;-73
2023/04/04 04:49:33;;;;;;;6.70;2.05;;;-0.70;99.90;;;;;;4990146;28;20053;-73
2023/04/04 04:51:59;;;;;;;7.82;2.30;;;-0.70;99.90;;;;;;4989259;28;20022;-73
2023/04/04 04:54:24;;;;;;;5.30;2.95;;;-0.70;99.90;;;;;;4987845;28;20376;-73
2023/04/04 04:56:50;;;;;;;6.50;2.40;;;-0.60;99.90;;;;;;4983973;28;20632;-73
2023/04/04 04:59:15;;;;;;;7.07;2.45;;;-0.50;99.90;;;;;;4988766;28;20042;-73
2023/04/04 05:01:41;;;;;;;9.63;2.45;;;-0.50;99.90;;;;;;4984427;28;20406;-73
2023/04/04 05:04:06;;;;;;;7.15;2.42;;;-0.50;99.90;;;;;;4992364;28;20018;-73
2023/04/04 05:06:32;;;;;;;5.88;2.28;;;-0.40;99.90;;;;;;4985374;28;20158;-72
2023/04/04 05:08:57;;;;;;;8.93;2.30;;;-0.40;99.90;;;;;;4988584;28;20129;-73
2023/04/04 05:11:23;;;;;;;8.73;2.45;;;-0.40;99.90;;;;;;4985686;28;20021;-73
2023/04/04 05:13:48;;;;;;;5.93;2.67;;;-0.40;99.90;;;;;;4989775;28;20056;-73
2023/04/04 05:16:14;;;;;;;6.80;2.25;;;-0.40;99.90;;;;;;4990514;28;20525;-73
2023/04/04 05:18:40;;;;;;;3.97;2.25;;;-0.40;99.90;;;;;;4991074;28;20030;-73
2023/04/04 05:21:06;;;;;;;5.40;2.30;;;-0.40;99.90;;;;;;4994199;28;20062;-73
2023/04/04 05:23:31;;;;;;;5.50;2.03;;;-0.40;99.90;;;;;;4994439;28;20046;-73
2023/04/04 05:25:57;;;;;;;6.47;2.50;;;-0.40;99.90;;;;;;4984842;28;20038;-73
2023/04/04 05:28:22;;;;;;;9.65;2.65;;;-0.40;99.90;;;;;;4989948;28;20026;-72
2023/04/04 05:30:48;;;;;;;7.68;2.83;;;-0.40;99.90;;;;;;4985671;28;20104;-73
2023/04/04 05:33:13;;;;;;;7.60;2.30;;;-0.40;99.90;;;;;;4992195;28;20026;-73
2023/04/04 05:35:40;;;;;;;6.82;1.85;;;-0.40;99.90;;;;;;4993210;28;20076;-74
2023/04/04 05:38:06;;;;;;;7.22;2.97;;;-0.40;99.90;;;;;;4991352;28;20033;-72
2023/04/04 05:40:32;;;;;;;7.88;3.22;;;-0.30;99.90;;;;;;5000633;28;21686;-72
2023/04/04 05:42:58;;;;;;;11.65;3.13;;;-0.20;99.90;;;;;;4988246;28;20081;-72
2023/04/04 05:45:25;;;;;;;8.50;2.70;;;-0.10;99.90;;;;;;4992281;28;20109;-72
2023/04/04 05:47:51;;;;;;;9.25;2.65;;;-0.10;99.90;;;;;;4991550;28;20030;-72
2023/04/04 05:50:16;;;;;;;8.18;2.30;;;0.00;99.90;;;;;;4989010;28;20025;-72
2023/04/04 05:52:42;;;;;;;10.82;3.28;;;0.00;99.90;;;;;;4997500;28;20030;-72
2023/04/04 05:55:08;;;;;;;12.30;3.17;;;0.10;99.90;;;;;;4999161;28;20022;-72
2023/04/04 05:57:34;;;;;;;7.55;2.95;;;0.20;99.90;;;;;;4989505;28;20074;-72
2023/04/04 05:59:59;;;;;;;12.90;4.10;;;0.20;99.90;;;;;;5001080;28;20064;-73
2023/04/04 06:02:25;;;;;;;7.90;2.80;;;0.20;99.90;;;;;;4999438;28;20030;-72
2023/04/04 06:04:51;;;;;;;6.93;2.97;;;0.30;99.90;;;;;;4998773;28;20098;-72
2023/04/04 06:07:17;;;;;;;9.13;3.38;;;0.40;99.90;;;;;;4998031;28;20026;-72
2023/04/04 06:09:42;;;;;;;9.05;3.10;;;0.50;99.90;;;;;;4995033;28;20031;-72
2023/04/04 06:12:08;;;;;;;7.80;2.55;;;0.50;99.90;;;;;;4989224;28;20045;-72
2023/04/04 06:14:35;;;;;;;9.82;3.17;;;0.60;99.90;;;;;;4993712;28;20109;-73
2023/04/04 06:17:01;;;;;;;10.52;3.72;;;0.70;99.90;;;;;;4991912;28;20026;-73
2023/04/04 06:19:26;;;;;;;9.73;2.88;;;0.70;99.90;;;;;;4993349;28;20027;-73
2023/04/04 06:21:52;;;;;;;6.65;2.75;;;0.70;99.90;;;;;;4986651;28;20026;-73
2023/04/04 06:24:17;;;;;;;10.85;2.63;;;0.80;99.90;;;;;;4990589;28;20026;-73
2023/04/04 06:26:43;;;;;;;6.60;2.63;;;0.90;99.90;;;;;;4994336;28;20088;-72
2023/04/04 06:29:09;;;;;;;6.20;2.63;;;0.90;99.90;;;;;;4992448;28;20023;-73
2023/04/04 06:31:35;;;;;;;7.18;2.67;;;0.90;99.90;;;;;;5007954;28;20041;-72
2023/04/04 06:34:01;;;;;;;11.10;2.97;;;1.00;99.90;;;;;;4996199;28;20031;-72
2023/04/04 06:36:26;;;;;;;9.38;2.88;;;1.10;99.90;;;;;;5001556;28;20113;-73
2023/04/04 06:38:52;;;;;;;9.80;2.97;;;1.20;99.90;;;;;;4991341;28;20445;-72
2023/04/04 06:41:17;;;;;;;9.25;3.28;;;1.30;99.90;;;;;;4991909;28;20141;-73
2023/04/04 06:43:45;;;;;;;11.13;3.53;;;1.50;99.90;;;;;;4993118;28;20054;-72
2023/04/04 06:46:11;;;;;;;10.77;3.40;;;1.60;99.90;;;;;;4993993;28;20405;-72
2023/04/04 06:48:37;;;;;;;8.68;3.42;;;1.60;99.90;;;;;;4994475;28;20033;-72
2023/04/04 06:51:06;;;;;;;8.18;2.63;;;1.70;99.90;;;;;;5000823;28;20021;-72
2023/04/04 06:53:33;;;;;;;7.18;2.67;;;1.80;99.90;;;;;;4995708;28;20102;-72
2023/04/04 06:55:59;;;;;;;7.40;2.97;;;1.90;99.90;;;;;;4988504;28;20133;-72
2023/04/04 06:58:24;;;;;;;8.93;3.22;;;2.00;99.90;;;;;;4992430;28;20043;-72
2023/04/04 07:00:50;;;;;;;10.63;3.13;;;2.10;99.90;;;;;;4993911;28;20368;-73
2023/04/04 07:03:16;;;;;;;11.85;3.55;;;2.20;99.90;;;;;;5003120;28;20098;-74
2023/04/04 07:05:41;;;;;;;9.63;3.15;;;2.30;99.90;;;;;;4997407;28;20487;-72
2023/04/04 07:08:08;;;;;;;11.45;3.88;;;2.40;99.90;;;;;;4992158;28;20037;-73
2023/04/04 07:10:34;;;;;;;11.15;3.35;;;2.50;99.90;;;;;;5002960;28;20107;-73
2023/04/04 07:12:59;;;;;;;10.85;3.83;;;2.60;99.90;;;;;;4993509;28;20050;-72
2023/04/04 07:15:26;;;;;;;6.95;3.70;;;2.70;99.90;;;;;;5002263;28;20045;-72
2023/04/04 07:17:52;;;;;;;8.68;3.38;;;2.80;99.90;;;;;;4981333;28;20089;-73
2023/04/04 07:20:18;;;;;;;7.40;3.20;;;2.90;99.90;;;;;;4991099;28;20475;-73
2023/04/04 07:22:43;;;;;;;6.72;3.17;;;3.10;99.90;;;;;;4991324;28;20045;-73
2023/04/04 07:25:09;;;;;;;10.38;3.85;;;3.20;99.90;;;;;;4991403;28;20034;-73
2023/04/04 07:27:35;;;;;;;9.60;3.75;;;3.40;99.90;;;;;;4992140;28;20104;-73
2023/04/04 07:30:02;;;;;;;7.80;3.92;;;3.50;99.90;;;;;;4991824;28;20065;-72
2023/04/04 07:32:28;;;;;;;9.07;3.80;;;3.60;99.90;;;;;;4992458;28;20030;-72
2023/04/04 07:34:54;;;;;;;8.90;4.22;;;3.70;99.90;;;;;;4992770;28;20034;-72
2023/04/04 07:37:20;;;;;;;10.65;3.80;;;3.90;99.90;;;;;;4992383;28;20110;-73
2023/04/04 07:39:48;;;;;;;7.75;3.35;;;4.00;99.90;;;;;;4990736;28;20033;-72
2023/04/04 07:42:21;;;;;;;7.88;2.75;;;4.10;99.90;;;;;;4991328;28;20037;-72
2023/04/04 07:44:56;;;;;;;10.52;2.60;;;4.10;99.90;;;;;;4991980;28;20038;-73
2023/04/04 07:47:22;;;;;;;11.80;3.35;;;4.20;99.90;;;;;;4991954;28;20149;-73
2023/04/04 07:49:47;;;;;;;6.15;3.00;;;4.30;99.90;;;;;;4992359;28;20493;-73
2023/04/04 07:52:13;;;;;;;11.57;3.17;;;4.40;99.90;;;;;;4992068;28;20100;-73
2023/04/04 07:54:39;;;;;;;7.38;3.22;;;4.50;99.90;;;;;;4991875;28;20036;-73
2023/04/04 07:57:05;;;;;;;5.38;2.80;;;4.60;99.90;;;;;;4989023;28;20062;-73
2023/04/04 07:59:31;;;;;;;7.13;2.63;;;4.70;99.90;;;;;;4990191;28;20031;-73
2023/04/04 08:01:57;;;;;;;9.45;2.53;;;4.70;99.90;;;;;;4991745;28;20109;-73
2023/04/04 08:04:22;;;;;;;11.38;3.28;;;4.90;99.90;;;;;;4991358;28;20117;-72
2023/04/04 08:06:48;;;;;;;6.40;2.70;;;5.00;99.90;;;;;;4991764;28;20037;-73
2023/04/04 08:09:14;;;;;;;8.95;3.65;;;5.10;99.90;;;;;;4990970;28;20026;-73
2023/04/04 08:11:40;;;;;;;4.70;2.55;;;5.20;99.90;;;;;;4990959;28;20081;-72
2023/04/04 08:14:06;;;;;;;8.73;3.75;;;5.40;99.90;;;;;;4986885;28;20034;-73
2023/04/04 08:16:31;;;;;;;9.98;3.58;;;5.50;99.90;;;;;;4990720;28;20077;-73
2023/04/04 08:18:57;;;;;;;9.10;3.80;;;5.60;99.90;;;;;;4991147;28;20022;-73
2023/04/04 08:21:23;;;;;;;9.98;4.85;;;5.70;99.90;;;;;;4990271;28;20453;-73
2023/04/04 08:23:48;;;;;;;11.90;4.72;;;5.70;99.90;;;;;;4989957;28;20026;-73
2023/04/04 08:26:14;;;;;;;5.95;3.30;;;5.80;99.90;;;;;;4990782;28;20034;-73
2023/04/04 08:28:39;;;;;;;6.07;3.00;;;6.00;99.90;;;;;;4989647;28;20027;-72
2023/04/04 08:31:05;;;;;;;6.22;3.22;;;6.10;99.90;;;;;;4988882;28;20110;-73
2023/04/04 08:33:30;;;;;;;4.97;2.22;;;6.10;99.90;;;;;;4990977;28;20036;-74
2023/04/04 08:35:57;;;;;;;6.35;2.13;;;6.20;99.90;;;;;;4990180;28;20033;-74
2023/04/04 08:38:22;;;;;;;5.22;1.50;;;6.30;99.90;;;;;;4991045;28;20050;-74
2023/04/04 08:40:48;;;;;;;6.80;1.48;;;6.40;99.90;;;;;;4987372;28;20031;-74
2023/04/04 08:43:15;;;;;;;4.43;1.05;;;6.50;99.90;;;;;;4987235;28;20026;-74
2023/04/04 08:45:43;;;;;;;3.95;1.05;;;6.50;99.90;;;;;;4986306;28;20430;-74
2023/04/04 08:48:13;;;;;;;5.72;1.35;;;6.60;99.90;;;;;;4986081;28;20027;-74
2023/04/04 08:50:41;;;;;;;6.60;1.20;;;6.60;99.70;;;;;;4991048;28;20105;-74
2023/04/04 08:53:09;;;;;;;4.95;1.15;;;6.60;98.20;;;;;;4991003;28;20486;-74
2023/04/04 08:55:36;;;;;;;3.08;1.13;;;6.60;97.50;;;;;;4990144;28;20043;-74
2023/04/04 08:58:02;;;;;;;4.90;1.45;;;6.70;96.20;;;;;;4994728;28;20046;-73
2023/04/04 09:00:28;;;;;;;4.22;1.25;;;6.70;95.90;;;;;;4994984;28;20041;-74
2023/04/04 09:03:18;;;;;;;3.60;0.70;;;6.80;95.70;;;;;;4994487;28;20030;-74
2023/04/04 09:05:44;;;;;;;3.95;0.98;;;6.90;95.10;;;;;;4992948;28;20027;-74
2023/04/04 09:08:11;;;;;;;3.65;0.90;;;7.00;95.10;;;;;;4993258;28;20653;-74
2023/04/04 09:10:37;;;;;;;3.88;0.85;;;7.10;94.40;;;;;;4993208;28;20479;-74
2023/04/04 09:13:03;;;;;;;6.18;0.98;;;7.00;92.70;;;;;;4986727;28;20541;-74
2023/04/04 09:15:31;;;;;;;5.15;1.02;;;7.10;92.60;;;;;;4992183;28;20419;-74
2023/04/04 09:17:57;;;;;;;7.43;1.02;;;7.10;91.50;;;;;;4992504;28;20460;-74
2023/04/04 09:20:42;;;;;;;3.38;1.02;;;7.20;91.60;;;;;;4986446;28;20050;-74
2023/04/04 09:23:13;;;;;;;6.38;0.80;;;7.20;91.80;;;;;;4993462;28;20490;-74
2023/04/04 09:25:49;;;;;;;2.83;0.82;;;7.40;91.20;;;;;;4994765;28;20038;-74
2023/04/04 09:28:16;;;;;;;6.18;1.20;;;7.40;89.50;;;;;;4994232;28;20045;-75
2023/04/04 09:30:45;;;;;;;4.57;1.15;;;7.30;88.30;;;;;;4992427;28;20482;-74
2023/04/04 09:33:12;;;;;;;3.78;0.77;;;7.40;88.40;;;;;;4992132;28;20027;-74
2023/04/04 09:35:42;;;;;;;4.82;0.82;;;7.50;88.60;;;;;;4994561;28;20030;-74
2023/04/04 09:38:08;;;;;;;3.55;1.00;;;7.50;86.50;;;;;;4994777;28;20384;-74
2023/04/04 09:40:35;;;;;;;2.78;0.70;;;7.50;85.90;;;;;;4993770;28;20038;-74
2023/04/04 09:43:01;;;;;;;3.92;0.70;;;7.50;84.70;;;;;;4994634;28;20022;-74
2023/04/04 09:45:30;;;;;;;2.28;0.60;;;7.50;81.70;;;;;;4983356;28;20023;-74
2023/04/04 09:47:56;;;;;;;3.83;0.70;;;7.40;80.30;;;;;;4981704;28;20376;-74
2023/04/04 09:50:23;;;;;;;4.07;0.80;;;7.40;79.90;;;;;;4989823;28;20065;-74
2023/04/04 09:52:50;;;;;;;5.32;1.00;;;7.40;80.90;;;;;;4993728;28;20113;-74
2023/04/04 09:55:17;;;;;;;4.10;1.00;;;7.50;81.60;;;;;;4993412;28;20070;-74
2023/04/04 09:57:45;;;;;;;5.05;0.90;;;7.60;80.30;;;;;;4993647;28;20122;-74
2023/04/04 10:00:11;;;;;;;3.45;0.80;;;7.60;80.10;;;;;;4993723;28;20042;-74
2023/04/04 10:02:39;;;;;;;5.78;1.33;;;7.70;81.40;;;;;;4993517;28;20037;-74
2023/04/04 10:05:09;;;;;;;4.25;1.08;;;7.80;80.30;;;;;;4993769;28;20475;-74
2023/04/04 10:07:38;;;;;;;4.88;0.90;;;7.80;80.50;;;;;;4990011;28;20057;-74
2023/04/04 10:10:10;;;;;;;3.42;0.80;;;7.80;79.60;;;;;;4993362;28;20027;-74
2023/04/04 10:12:36;;;;;;;2.90;1.02;;;7.90;79.70;;;;;;4994220;28;20076;-74
2023/04/04 10:15:02;;;;;;;2.55;0.63;;;7.90;78.60;;;;;;4992651;28;20038;-74
2023/04/04 10:17:37;;;;;;;6.38;1.25;;;8.00;79.30;;;;;;4991074;28;20122;-74
2023/04/04 10:20:07;;;;;;;4.53;0.80;;;8.10;79.00;;;;;;4993339;28;20030;-74
2023/04/04 10:22:35;;;;;;;3.88;1.42;;;8.10;76.70;;;;;;4992657;28;20645;-74
2023/04/04 10:25:01;;;;;;;4.20;0.88;;;8.10;76.60;;;;;;4991819;28;20033;-74
2023/04/04 10:27:27;;;;;;;4.35;1.10;;;8.10;77.40;;;;;;4992115;28;20030;-74
2023/04/04 10:29:53;;;;;;;7.50;1.55;;;8.10;77.40;;;;;;4993772;28;20027;-74
2023/04/04 10:32:25;;;;;;;5.70;1.55;;;8.10;76.50;;;;;;4992263;28;20037;-74
2023/04/04 10:35:04;;;;;;;3.28;1.15;;;8.20;78.20;;;;;;4993391;28;20023;-74
2023/04/04 10:37:40;;;;;;;4.60;1.05;;;8.40;77.80;;;;;;4993543;28;20394;-74
2023/04/04 10:40:12;;;;;;;4.15;0.88;;;8.40;76.40;;;;;;4991336;28;20046;-74
2023/04/04 10:42:40;;;;;;;4.40;1.05;;;8.40;77.90;;;;;;4988320;28;20517;-74
2023/04/04 10:45:09;;;;;;;8.25;1.50;;;8.50;77.30;;;;;;4992323;28;20081;-74
2023/04/04 10:47:36;;;;;;;3.35;0.98;;;8.60;77.50;;;;;;4987372;28;20038;-74
2023/04/04 10:50:08;;;;;;;4.22;1.33;;;8.70;77.80;;;;;;4991350;28;20122;-74
2023/04/04 10:52:35;;;;;;;4.55;1.33;;;8.80;77.30;;;;;;4992355;28;20030;-74
2023/04/04 10:55:04;;;;;;;4.30;1.00;;;8.80;78.00;;;;;;4992700;28;20038;-74
2023/04/04 10:57:32;;;;;;;5.15;1.75;;;8.80;77.20;;;;;;4987341;28;20050;-74
2023/04/04 11:00:04;;;;;;;4.80;1.08;;;8.80;75.00;;;;;;4992128;28;20034;-74
2023/04/04 11:02:52;;;;;;;4.75;1.17;;;8.70;75.00;;;;;;4992916;28;20034;-74
2023/04/04 11:05:39;;;;;;;3.38;1.20;;;8.70;76.70;;;;;;4987238;28;20069;-74
2023/04/04 11:08:09;;;;;;;3.40;1.65;;;8.80;76.70;;;;;;4990270;28;20030;-74
2023/04/04 11:10:47;;;;;;;3.60;1.30;;;8.90;76.70;;;;;;4989651;28;20049;-74
2023/04/04 11:13:34;;;;;;;3.78;1.10;;;9.00;76.30;;;;;;4989475;28;20101;-75
2023/04/04 11:16:06;;;;;;;3.92;1.00;;;9.10;76.40;;;;;;4990262;28;20070;-74
2023/04/04 11:18:31;;;;;;;2.57;0.73;;;9.10;74.40;;;;;;4990638;28;20046;-74
2023/04/04 11:21:06;;;;;;;3.78;1.23;;;9.10;73.70;;;;;;4989874;28;20042;-74
2023/04/04 11:23:48;;;;;;;4.35;1.10;;;9.00;73.50;;;;;;4991956;28;20050;-74
2023/04/04 11:26:40;;;;;;;5.95;1.33;;;9.10;74.90;;;;;;4989362;28;20026;-74
2023/04/04 11:29:07;;;;;;;5.13;1.10;;;9.20;73.30;;;;;;4986911;28;20786;-74
2023/04/04 11:31:37;;;;;;;3.08;0.98;;;9.10;72.00;;;;;;4991115;28;20031;-74
2023/04/04 11:34:08;;;;;;;3.67;1.17;;;9.10;73.10;;;;;;4991793;28;20113;-74
2023/04/04 11:36:43;;;;;;;5.05;1.50;;;9.00;73.20;;;;;;4988278;28;20049;-74
2023/04/04 11:39:27;;;;;;;5.88;1.00;;;9.10;73.70;;;;;;4991161;28;20026;-74
2023/04/04 11:42:12;;;;;;;4.38;1.50;;;9.30;72.30;;;;;;4990642;28;20435;-74
2023/04/04 11:45:02;;;;;;;4.68;1.02;;;9.40;72.20;;;;;;4990996;28;20023;-74
2023/04/04 11:47:29;;;;;;;4.47;1.20;;;9.30;70.80;;;;;;4992053;28;20022;-74
2023/04/04 11:49:55;;;;;;;3.63;1.02;;;9.30;71.10;;;;;;4999352;28;20085;-74
2023/04/04 11:52:22;;;;;;;6.00;1.27;;;9.40;71.60;;;;;;5007197;23;20136;-74
2023/04/04 11:54:49;;;;;;;4.90;1.33;;;9.40;71.20;;;;;;5030229;28;20369;-74
2023/04/04 11:57:16;;;;;;;3.97;1.10;;;9.40;71.70;;;;;;5030822;28;20036;-74
2023/04/04 11:59:44;;;;;;;3.63;1.17;;;9.50;71.30;;;;;;5017554;28;20276;-74
2023/04/04 12:02:11;;;;;;;5.55;1.00;;;9.60;71.90;;;;;;5036543;28;20022;-74
2023/04/04 12:04:39;;;;;;;5.65;1.02;;;9.60;71.50;;;;;;5030046;28;20029;-74
2023/04/04 12:07:06;;;;;;;7.00;1.00;;;9.80;71.20;;;;;;5030001;28;20499;-73
2023/04/04 12:09:33;;;;;;;4.68;1.33;;;9.70;69.70;;;;;;5043034;28;20067;-74
2023/04/04 12:11:59;;;;;;;5.15;1.48;;;9.80;71.30;;;;;;5045033;28;20058;-74
2023/04/04 12:14:26;;;;;;;5.32;1.23;;;9.90;71.50;;;;;;5031575;28;20026;-74
2023/04/04 12:16:53;;;;;;;4.38;1.30;;;10.00;71.30;;;;;;5026267;28;20105;-74
2023/04/04 12:19:21;;;;;;;4.88;1.63;;;10.10;71.90;;;;;;5026403;28;20053;-74
2023/04/04 12:21:47;;;;;;;4.75;1.45;;;10.10;69.50;;;;;;5014131;28;20120;-74
2023/04/04 12:24:13;;;;;;;3.83;1.40;;;10.10;70.30;;;;;;5030088;28;20021;-74
2023/04/04 12:26:42;;;;;;;4.50;1.38;;;10.10;69.80;;;;;;5021861;28;20018;-75
2023/04/04 12:29:10;;;;;;;9.57;1.73;;;10.20;70.00;;;;;;5019964;28;20037;-74
2023/04/04 12:31:38;;;;;;;4.72;1.15;;;10.20;69.60;;;;;;5016966;28;20022;-73
2023/04/04 12:34:04;;;;;;;3.65;1.50;;;10.20;68.60;;;;;;5015021;28;20175;-74
2023/04/04 12:36:30;;;;;;;4.68;1.58;;;10.10;68.00;;;;;;5019438;28;20504;-74
2023/04/04 12:39:07;;;;;;;4.05;1.58;;;10.10;68.90;;;;;;5029164;28;20424;-74
2023/04/04 12:41:34;;;;;;;4.55;2.17;;;10.20;69.60;;;;;;5022665;28;20509;-74
2023/04/04 12:44:01;;;;;;;3.17;1.35;;;10.30;68.90;;;;;;5031324;28;20037;-73
2023/04/04 12:46:33;;;;;;;4.07;1.08;;;10.30;69.50;;;;;;5031518;28;20021;-74
2023/04/04 12:48:59;;;;;;;6.07;1.27;;;10.30;69.30;;;;;;5024517;28;20017;-74
2023/04/04 12:51:31;;;;;;;6.57;1.55;;;10.30;68.50;;;;;;5025498;28;20044;-74
2023/04/04 12:53:58;;;;;;;4.22;1.30;;;10.20;66.90;;;;;;5011589;28;20477;-74